sensor_id;sensor_type;location;lat;lon;timestamp;P1;durP1;ratioP1;P2;durP2;ratioP2
39750;SDS011;37579;51.074;17.004;2023-01-08T00:01:23;10.30;;;6.65;;
39750;SDS011;37579;51.074;17.004;2023-01-08T00:03:49;8.98;;;6.68;;
39750;SDS011;37579;51.074;17.004;2023-01-08T00:06:16;11.38;;;7.25;;
39750;SDS011;37579;51.074;17.004;2023-01-08T00:08:43;11.02;;;6.97;;
39750;SDS011;37579;51.074;17.004;2023-01-08T00:11:09;10.00;;;6.70;;
39750;SDS011;37579;51.074;17.004;2023-01-08T00:13:36;9.07;;;6.40;;
39750;SDS011;37579;51.074;17.004;2023-01-08T00:16:06;11.02;;;6.70;;
39750;SDS011;37579;51.074;17.004;2023-01-08T00:18:34;9.93;;;6.53;;
39750;SDS011;37579;51.074;17.004;2023-01-08T00:21:00;11.00;;;6.53;;
39750;SDS011;37579;51.074;17.004;2023-01-08T00:23:26;9.27;;;6.35;;
39750;SDS011;37579;51.074;17.004;2023-01-08T00:25:52;9.80;;;6.40;;
39750;SDS011;37579;51.074;17.004;2023-01-08T00:28:17;10.48;;;6.40;;
39750;SDS011;37579;51.074;17.004;2023-01-08T00:30:45;10.98;;;6.80;;
39750;SDS011;37579;51.074;17.004;2023-01-08T00:33:11;11.05;;;6.53;;
39750;SDS011;37579;51.074;17.004;2023-01-08T00:35:37;8.90;;;6.13;;
39750;SDS011;37579;51.074;17.004;2023-01-08T00:38:04;9.32;;;6.45;;
39750;SDS011;37579;51.074;17.004;2023-01-08T00:40:30;9.60;;;6.60;;
39750;SDS011;37579;51.074;17.004;2023-01-08T00:42:58;8.98;;;6.10;;
39750;SDS011;37579;51.074;17.004;2023-01-08T00:45:24;8.10;;;5.93;;
39750;SDS011;37579;51.074;17.004;2023-01-08T00:47:49;8.40;;;6.10;;
39750;SDS011;37579;51.074;17.004;2023-01-08T00:50:15;11.23;;;5.90;;
39750;SDS011;37579;51.074;17.004;2023-01-08T00:52:41;8.88;;;6.05;;
39750;SDS011;37579;51.074;17.004;2023-01-08T00:55:07;9.77;;;6.00;;
39750;SDS011;37579;51.074;17.004;2023-01-08T00:57:34;9.32;;;6.65;;
39750;SDS011;37579;51.074;17.004;2023-01-08T01:00:01;10.00;;;6.75;;
39750;SDS011;37579;51.074;17.004;2023-01-08T01:02:27;8.05;;;6.18;;
39750;SDS011;37579;51.074;17.004;2023-01-08T01:04:53;8.48;;;6.18;;
39750;SDS011;37579;51.074;17.004;2023-01-08T01:07:19;9.20;;;6.20;;
39750;SDS011;37579;51.074;17.004;2023-01-08T01:09:45;9.80;;;6.60;;
39750;SDS011;37579;51.074;17.004;2023-01-08T01:12:11;8.43;;;5.72;;
39750;SDS011;37579;51.074;17.004;2023-01-08T01:14:37;10.45;;;6.03;;
39750;SDS011;37579;51.074;17.004;2023-01-08T01:17:03;8.50;;;6.38;;
39750;SDS011;37579;51.074;17.004;2023-01-08T01:19:29;8.98;;;6.40;;
39750;SDS011;37579;51.074;17.004;2023-01-08T01:21:55;8.90;;;6.18;;
39750;SDS011;37579;51.074;17.004;2023-01-08T01:24:21;8.50;;;6.07;;
39750;SDS011;37579;51.074;17.004;2023-01-08T01:26:52;10.55;;;6.72;;
39750;SDS011;37579;51.074;17.004;2023-01-08T01:29:20;9.05;;;6.53;;
39750;SDS011;37579;51.074;17.004;2023-01-08T01:31:46;9.85;;;6.20;;
39750;SDS011;37579;51.074;17.004;2023-01-08T01:34:12;9.05;;;6.13;;
39750;SDS011;37579;51.074;17.004;2023-01-08T01:36:38;7.65;;;5.55;;
39750;SDS011;37579;51.074;17.004;2023-01-08T01:39:04;8.13;;;6.03;;
39750;SDS011;37579;51.074;17.004;2023-01-08T01:41:36;8.23;;;6.18;;
39750;SDS011;37579;51.074;17.004;2023-01-08T01:50:16;8.10;;;5.57;;
39750;SDS011;37579;51.074;17.004;2023-01-08T01:52:55;9.30;;;6.43;;
39750;SDS011;37579;51.074;17.004;2023-01-08T01:55:32;10.60;;;6.30;;
39750;SDS011;37579;51.074;17.004;2023-01-08T02:00:37;8.50;;;6.00;;
39750;SDS011;37579;51.074;17.004;2023-01-08T02:03:03;8.75;;;5.47;;
39750;SDS011;37579;51.074;17.004;2023-01-08T02:05:45;9.18;;;5.70;;
39750;SDS011;37579;51.074;17.004;2023-01-08T02:08:59;8.32;;;6.10;;
39750;SDS011;37579;51.074;17.004;2023-01-08T02:13:59;8.07;;;5.40;;
39750;SDS011;37579;51.074;17.004;2023-01-08T02:25:01;7.72;;;5.53;;
39750;SDS011;37579;51.074;17.004;2023-01-08T02:27:50;8.52;;;5.72;;
39750;SDS011;37579;51.074;17.004;2023-01-08T02:30:18;8.55;;;6.03;;
39750;SDS011;37579;51.074;17.004;2023-01-08T02:32:44;8.15;;;5.45;;
39750;SDS011;37579;51.074;17.004;2023-01-08T02:35:10;7.47;;;5.55;;
39750;SDS011;37579;51.074;17.004;2023-01-08T02:37:36;8.40;;;5.85;;
39750;SDS011;37579;51.074;17.004;2023-01-08T02:55:54;8.75;;;5.80;;
39750;SDS011;37579;51.074;17.004;2023-01-08T02:58:24;8.68;;;6.03;;
39750;SDS011;37579;51.074;17.004;2023-01-08T03:00:53;8.55;;;5.93;;
39750;SDS011;37579;51.074;17.004;2023-01-08T03:03:24;7.40;;;5.97;;
39750;SDS011;37579;51.074;17.004;2023-01-08T03:05:54;8.33;;;6.13;;
39750;SDS011;37579;51.074;17.004;2023-01-08T03:08:23;8.52;;;5.70;;
39750;SDS011;37579;51.074;17.004;2023-01-08T03:10:51;8.10;;;6.25;;
39750;SDS011;37579;51.074;17.004;2023-01-08T03:13:31;7.55;;;5.82;;
39750;SDS011;37579;51.074;17.004;2023-01-08T03:15:59;7.18;;;5.75;;
39750;SDS011;37579;51.074;17.004;2023-01-08T03:18:29;8.50;;;6.13;;
39750;SDS011;37579;51.074;17.004;2023-01-08T03:21:00;8.60;;;5.60;;
39750;SDS011;37579;51.074;17.004;2023-01-08T03:23:27;8.18;;;5.90;;
39750;SDS011;37579;51.074;17.004;2023-01-08T03:25:55;7.22;;;5.47;;
39750;SDS011;37579;51.074;17.004;2023-01-08T03:28:25;7.43;;;5.57;;
39750;SDS011;37579;51.074;17.004;2023-01-08T03:30:55;7.68;;;5.75;;
39750;SDS011;37579;51.074;17.004;2023-01-08T03:33:23;9.15;;;6.07;;
39750;SDS011;37579;51.074;17.004;2023-01-08T03:35:52;8.23;;;5.95;;
39750;SDS011;37579;51.074;17.004;2023-01-08T03:38:22;7.80;;;5.45;;
39750;SDS011;37579;51.074;17.004;2023-01-08T03:40:54;7.45;;;5.63;;
39750;SDS011;37579;51.074;17.004;2023-01-08T03:43:24;7.25;;;5.72;;
39750;SDS011;37579;51.074;17.004;2023-01-08T03:45:51;8.32;;;5.95;;
39750;SDS011;37579;51.074;17.004;2023-01-08T03:48:20;8.68;;;6.28;;
39750;SDS011;37579;51.074;17.004;2023-01-08T03:50:47;9.00;;;6.35;;
39750;SDS011;37579;51.074;17.004;2023-01-08T03:53:14;9.93;;;6.40;;
39750;SDS011;37579;51.074;17.004;2023-01-08T03:55:40;7.82;;;5.70;;
39750;SDS011;37579;51.074;17.004;2023-01-08T03:58:05;8.68;;;5.97;;
39750;SDS011;37579;51.074;17.004;2023-01-08T04:00:31;8.10;;;5.65;;
39750;SDS011;37579;51.074;17.004;2023-01-08T04:02:57;7.57;;;5.60;;
39750;SDS011;37579;51.074;17.004;2023-01-08T04:05:23;8.95;;;6.00;;
39750;SDS011;37579;51.074;17.004;2023-01-08T04:07:49;6.82;;;5.03;;
39750;SDS011;37579;51.074;17.004;2023-01-08T04:10:15;8.15;;;5.95;;
39750;SDS011;37579;51.074;17.004;2023-01-08T04:12:41;7.80;;;5.75;;
39750;SDS011;37579;51.074;17.004;2023-01-08T04:15:07;6.80;;;5.47;;
39750;SDS011;37579;51.074;17.004;2023-01-08T04:17:34;7.82;;;5.63;;
39750;SDS011;37579;51.074;17.004;2023-01-08T04:19:59;7.63;;;5.82;;
39750;SDS011;37579;51.074;17.004;2023-01-08T04:22:25;7.88;;;5.32;;
39750;SDS011;37579;51.074;17.004;2023-01-08T04:24:51;10.95;;;6.57;;
39750;SDS011;37579;51.074;17.004;2023-01-08T04:27:17;8.25;;;5.75;;
39750;SDS011;37579;51.074;17.004;2023-01-08T04:29:43;9.38;;;6.18;;
39750;SDS011;37579;51.074;17.004;2023-01-08T04:32:09;8.73;;;5.97;;
39750;SDS011;37579;51.074;17.004;2023-01-08T04:34:34;7.05;;;5.63;;
39750;SDS011;37579;51.074;17.004;2023-01-08T04:37:00;8.32;;;6.00;;
39750;SDS011;37579;51.074;17.004;2023-01-08T04:39:27;8.55;;;5.85;;
39750;SDS011;37579;51.074;17.004;2023-01-08T04:41:53;9.00;;;5.97;;
39750;SDS011;37579;51.074;17.004;2023-01-08T04:44:19;7.70;;;5.82;;
39750;SDS011;37579;51.074;17.004;2023-01-08T04:46:45;7.70;;;5.65;;
39750;SDS011;37579;51.074;17.004;2023-01-08T04:49:11;8.90;;;6.50;;
39750;SDS011;37579;51.074;17.004;2023-01-08T04:51:37;9.55;;;6.32;;
39750;SDS011;37579;51.074;17.004;2023-01-08T04:54:03;7.60;;;5.75;;
39750;SDS011;37579;51.074;17.004;2023-01-08T04:56:29;8.18;;;5.60;;
39750;SDS011;37579;51.074;17.004;2023-01-08T04:58:55;7.78;;;5.85;;
39750;SDS011;37579;51.074;17.004;2023-01-08T05:01:22;6.53;;;5.57;;
39750;SDS011;37579;51.074;17.004;2023-01-08T05:03:57;9.52;;;5.95;;
39750;SDS011;37579;51.074;17.004;2023-01-08T05:06:27;8.18;;;5.82;;
39750;SDS011;37579;51.074;17.004;2023-01-08T05:08:54;7.10;;;4.97;;
39750;SDS011;37579;51.074;17.004;2023-01-08T05:11:20;8.23;;;6.00;;
39750;SDS011;37579;51.074;17.004;2023-01-08T05:13:47;7.78;;;5.68;;
39750;SDS011;37579;51.074;17.004;2023-01-08T05:16:14;7.68;;;5.82;;
39750;SDS011;37579;51.074;17.004;2023-01-08T05:18:40;8.63;;;5.82;;
39750;SDS011;37579;51.074;17.004;2023-01-08T05:21:06;7.70;;;6.03;;
39750;SDS011;37579;51.074;17.004;2023-01-08T05:23:32;7.82;;;5.53;;
39750;SDS011;37579;51.074;17.004;2023-01-08T05:25:59;8.07;;;6.10;;
39750;SDS011;37579;51.074;17.004;2023-01-08T05:28:26;10.45;;;6.70;;
39750;SDS011;37579;51.074;17.004;2023-01-08T05:30:52;8.38;;;6.43;;
39750;SDS011;37579;51.074;17.004;2023-01-08T05:33:19;8.90;;;6.63;;
39750;SDS011;37579;51.074;17.004;2023-01-08T05:35:45;8.27;;;5.63;;
39750;SDS011;37579;51.074;17.004;2023-01-08T05:38:11;7.65;;;5.85;;
39750;SDS011;37579;51.074;17.004;2023-01-08T05:40:37;7.95;;;5.80;;
39750;SDS011;37579;51.074;17.004;2023-01-08T05:43:02;8.57;;;6.40;;
39750;SDS011;37579;51.074;17.004;2023-01-08T05:45:30;7.78;;;5.35;;
39750;SDS011;37579;51.074;17.004;2023-01-08T05:47:56;7.38;;;5.50;;
39750;SDS011;37579;51.074;17.004;2023-01-08T05:50:22;7.60;;;5.57;;
39750;SDS011;37579;51.074;17.004;2023-01-08T05:52:48;8.38;;;6.38;;
39750;SDS011;37579;51.074;17.004;2023-01-08T05:55:14;8.52;;;5.60;;
39750;SDS011;37579;51.074;17.004;2023-01-08T05:57:40;8.93;;;6.10;;
39750;SDS011;37579;51.074;17.004;2023-01-08T06:00:06;7.97;;;5.63;;
39750;SDS011;37579;51.074;17.004;2023-01-08T06:02:36;8.80;;;5.80;;
39750;SDS011;37579;51.074;17.004;2023-01-08T06:05:02;8.57;;;5.90;;
39750;SDS011;37579;51.074;17.004;2023-01-08T06:07:29;8.35;;;5.80;;
39750;SDS011;37579;51.074;17.004;2023-01-08T06:09:55;8.30;;;5.95;;
39750;SDS011;37579;51.074;17.004;2023-01-08T06:12:20;8.00;;;6.13;;
39750;SDS011;37579;51.074;17.004;2023-01-08T06:14:46;7.82;;;5.90;;
39750;SDS011;37579;51.074;17.004;2023-01-08T06:17:12;8.30;;;5.65;;
39750;SDS011;37579;51.074;17.004;2023-01-08T06:19:39;7.82;;;5.90;;
39750;SDS011;37579;51.074;17.004;2023-01-08T06:22:05;7.05;;;5.32;;
39750;SDS011;37579;51.074;17.004;2023-01-08T06:24:30;7.63;;;5.65;;
39750;SDS011;37579;51.074;17.004;2023-01-08T06:26:56;8.00;;;6.13;;
39750;SDS011;37579;51.074;17.004;2023-01-08T06:29:22;7.05;;;5.47;;
39750;SDS011;37579;51.074;17.004;2023-01-08T06:31:48;6.70;;;5.57;;
39750;SDS011;37579;51.074;17.004;2023-01-08T06:34:14;8.05;;;5.65;;
39750;SDS011;37579;51.074;17.004;2023-01-08T06:36:40;7.22;;;5.40;;
39750;SDS011;37579;51.074;17.004;2023-01-08T06:39:06;9.07;;;6.07;;
39750;SDS011;37579;51.074;17.004;2023-01-08T06:41:32;7.57;;;5.72;;
39750;SDS011;37579;51.074;17.004;2023-01-08T06:43:58;7.45;;;5.78;;
39750;SDS011;37579;51.074;17.004;2023-01-08T06:46:24;8.48;;;6.00;;
39750;SDS011;37579;51.074;17.004;2023-01-08T06:48:50;8.63;;;5.75;;
39750;SDS011;37579;51.074;17.004;2023-01-08T06:51:15;7.68;;;5.55;;
39750;SDS011;37579;51.074;17.004;2023-01-08T06:53:41;7.82;;;5.32;;
39750;SDS011;37579;51.074;17.004;2023-01-08T06:56:07;7.40;;;5.88;;
39750;SDS011;37579;51.074;17.004;2023-01-08T06:58:35;7.10;;;5.15;;
39750;SDS011;37579;51.074;17.004;2023-01-08T07:01:02;7.15;;;5.50;;
39750;SDS011;37579;51.074;17.004;2023-01-08T07:03:28;6.45;;;5.18;;
39750;SDS011;37579;51.074;17.004;2023-01-08T07:05:54;7.82;;;5.78;;
39750;SDS011;37579;51.074;17.004;2023-01-08T07:08:20;7.70;;;5.93;;
39750;SDS011;37579;51.074;17.004;2023-01-08T07:10:47;7.47;;;5.53;;
39750;SDS011;37579;51.074;17.004;2023-01-08T07:13:13;6.63;;;5.18;;
39750;SDS011;37579;51.074;17.004;2023-01-08T07:15:39;6.75;;;5.15;;
39750;SDS011;37579;51.074;17.004;2023-01-08T07:18:09;6.97;;;5.72;;
39750;SDS011;37579;51.074;17.004;2023-01-08T07:20:36;7.93;;;5.68;;
39750;SDS011;37579;51.074;17.004;2023-01-08T07:23:06;7.18;;;5.32;;
39750;SDS011;37579;51.074;17.004;2023-01-08T07:25:34;8.15;;;5.90;;
39750;SDS011;37579;51.074;17.004;2023-01-08T07:28:00;8.10;;;5.70;;
39750;SDS011;37579;51.074;17.004;2023-01-08T07:30:26;7.70;;;5.70;;
39750;SDS011;37579;51.074;17.004;2023-01-08T07:32:52;7.30;;;5.53;;
39750;SDS011;37579;51.074;17.004;2023-01-08T07:35:21;8.02;;;5.80;;
39750;SDS011;37579;51.074;17.004;2023-01-08T07:37:47;7.80;;;5.60;;
39750;SDS011;37579;51.074;17.004;2023-01-08T07:40:13;7.40;;;5.80;;
39750;SDS011;37579;51.074;17.004;2023-01-08T07:42:39;8.10;;;5.63;;
39750;SDS011;37579;51.074;17.004;2023-01-08T07:45:04;6.82;;;5.38;;
39750;SDS011;37579;51.074;17.004;2023-01-08T07:47:32;7.32;;;5.43;;
39750;SDS011;37579;51.074;17.004;2023-01-08T07:49:58;8.13;;;5.63;;
39750;SDS011;37579;51.074;17.004;2023-01-08T07:52:24;6.85;;;5.43;;
39750;SDS011;37579;51.074;17.004;2023-01-08T07:54:50;7.72;;;5.53;;
39750;SDS011;37579;51.074;17.004;2023-01-08T07:57:15;8.75;;;6.07;;
39750;SDS011;37579;51.074;17.004;2023-01-08T07:59:41;7.18;;;5.50;;
39750;SDS011;37579;51.074;17.004;2023-01-08T08:02:09;7.20;;;5.53;;
39750;SDS011;37579;51.074;17.004;2023-01-08T08:04:35;7.57;;;5.18;;
39750;SDS011;37579;51.074;17.004;2023-01-08T08:07:01;6.90;;;5.47;;
39750;SDS011;37579;51.074;17.004;2023-01-08T08:09:27;7.65;;;5.40;;
39750;SDS011;37579;51.074;17.004;2023-01-08T08:11:53;7.65;;;5.43;;
39750;SDS011;37579;51.074;17.004;2023-01-08T08:14:19;8.07;;;5.90;;
39750;SDS011;37579;51.074;17.004;2023-01-08T08:16:45;10.55;;;9.43;;
39750;SDS011;37579;51.074;17.004;2023-01-08T08:19:11;11.45;;;7.45;;
39750;SDS011;37579;51.074;17.004;2023-01-08T08:21:37;8.55;;;6.30;;
39750;SDS011;37579;51.074;17.004;2023-01-08T08:24:03;9.38;;;6.22;;
39750;SDS011;37579;51.074;17.004;2023-01-08T08:26:29;7.68;;;5.85;;
39750;SDS011;37579;51.074;17.004;2023-01-08T08:28:55;8.77;;;5.53;;
39750;SDS011;37579;51.074;17.004;2023-01-08T08:31:20;7.32;;;5.60;;
39750;SDS011;37579;51.074;17.004;2023-01-08T08:33:46;7.22;;;5.28;;
39750;SDS011;37579;51.074;17.004;2023-01-08T08:36:12;8.27;;;6.00;;
39750;SDS011;37579;51.074;17.004;2023-01-08T08:38:38;7.32;;;5.25;;
39750;SDS011;37579;51.074;17.004;2023-01-08T08:41:04;7.70;;;5.60;;
39750;SDS011;37579;51.074;17.004;2023-01-08T08:43:30;8.63;;;5.40;;
39750;SDS011;37579;51.074;17.004;2023-01-08T08:45:56;6.95;;;5.47;;
39750;SDS011;37579;51.074;17.004;2023-01-08T08:48:22;8.68;;;5.85;;
39750;SDS011;37579;51.074;17.004;2023-01-08T08:50:48;7.22;;;5.18;;
39750;SDS011;37579;51.074;17.004;2023-01-08T08:53:14;7.18;;;5.07;;
39750;SDS011;37579;51.074;17.004;2023-01-08T08:55:40;6.72;;;5.20;;
39750;SDS011;37579;51.074;17.004;2023-01-08T08:58:07;7.40;;;5.35;;
39750;SDS011;37579;51.074;17.004;2023-01-08T09:00:38;7.40;;;5.15;;
39750;SDS011;37579;51.074;17.004;2023-01-08T09:03:05;7.80;;;5.40;;
39750;SDS011;37579;51.074;17.004;2023-01-08T09:05:35;7.32;;;5.20;;
39750;SDS011;37579;51.074;17.004;2023-01-08T09:08:01;6.50;;;5.00;;
39750;SDS011;37579;51.074;17.004;2023-01-08T09:10:27;7.88;;;5.32;;
39750;SDS011;37579;51.074;17.004;2023-01-08T09:12:52;8.13;;;5.63;;
39750;SDS011;37579;51.074;17.004;2023-01-08T09:15:19;6.88;;;4.68;;
39750;SDS011;37579;51.074;17.004;2023-01-08T09:17:51;6.80;;;4.68;;
39750;SDS011;37579;51.074;17.004;2023-01-08T09:20:18;7.50;;;5.23;;
39750;SDS011;37579;51.074;17.004;2023-01-08T09:22:43;6.47;;;4.93;;
39750;SDS011;37579;51.074;17.004;2023-01-08T09:25:09;7.25;;;5.38;;
39750;SDS011;37579;51.074;17.004;2023-01-08T09:27:35;5.80;;;4.63;;
39750;SDS011;37579;51.074;17.004;2023-01-08T09:30:01;5.47;;;4.47;;
39750;SDS011;37579;51.074;17.004;2023-01-08T09:32:27;6.25;;;4.60;;
39750;SDS011;37579;51.074;17.004;2023-01-08T09:34:53;6.57;;;5.28;;
39750;SDS011;37579;51.074;17.004;2023-01-08T09:37:19;6.53;;;4.93;;
39750;SDS011;37579;51.074;17.004;2023-01-08T09:39:44;6.78;;;4.43;;
39750;SDS011;37579;51.074;17.004;2023-01-08T09:42:10;6.32;;;4.80;;
39750;SDS011;37579;51.074;17.004;2023-01-08T09:44:39;7.63;;;4.68;;
39750;SDS011;37579;51.074;17.004;2023-01-08T09:47:28;6.93;;;4.72;;
39750;SDS011;37579;51.074;17.004;2023-01-08T09:50:02;6.68;;;4.78;;
39750;SDS011;37579;51.074;17.004;2023-01-08T09:52:32;6.00;;;4.43;;
39750;SDS011;37579;51.074;17.004;2023-01-08T09:55:01;5.35;;;4.28;;
39750;SDS011;37579;51.074;17.004;2023-01-08T09:57:27;6.80;;;5.03;;
39750;SDS011;37579;51.074;17.004;2023-01-08T09:59:53;6.80;;;4.65;;
39750;SDS011;37579;51.074;17.004;2023-01-08T10:02:20;7.07;;;4.63;;
39750;SDS011;37579;51.074;17.004;2023-01-08T10:04:57;6.50;;;4.72;;
39750;SDS011;37579;51.074;17.004;2023-01-08T10:07:24;5.80;;;4.50;;
39750;SDS011;37579;51.074;17.004;2023-01-08T10:09:51;6.45;;;4.57;;
39750;SDS011;37579;51.074;17.004;2023-01-08T10:12:29;9.35;;;4.35;;
39750;SDS011;37579;51.074;17.004;2023-01-08T10:15:04;5.88;;;3.83;;
39750;SDS011;37579;51.074;17.004;2023-01-08T10:17:39;6.30;;;3.97;;
39750;SDS011;37579;51.074;17.004;2023-01-08T10:20:11;6.25;;;4.38;;
39750;SDS011;37579;51.074;17.004;2023-01-08T10:22:39;4.72;;;3.75;;
39750;SDS011;37579;51.074;17.004;2023-01-08T10:25:10;5.40;;;4.20;;
39750;SDS011;37579;51.074;17.004;2023-01-08T10:30:16;5.53;;;3.97;;
39750;SDS011;37579;51.074;17.004;2023-01-08T10:33:01;5.75;;;4.55;;
39750;SDS011;37579;51.074;17.004;2023-01-08T10:35:33;4.07;;;3.67;;
39750;SDS011;37579;51.074;17.004;2023-01-08T10:38:01;5.20;;;3.92;;
39750;SDS011;37579;51.074;17.004;2023-01-08T10:40:36;7.03;;;4.03;;
39750;SDS011;37579;51.074;17.004;2023-01-08T10:43:16;8.63;;;4.35;;
39750;SDS011;37579;51.074;17.004;2023-01-08T10:46:03;6.07;;;3.88;;
39750;SDS011;37579;51.074;17.004;2023-01-08T10:48:39;6.50;;;4.18;;
39750;SDS011;37579;51.074;17.004;2023-01-08T10:53:42;10.68;;;4.35;;
39750;SDS011;37579;51.074;17.004;2023-01-08T10:58:48;7.82;;;4.30;;
39750;SDS011;37579;51.074;17.004;2023-01-08T11:03:53;5.70;;;4.30;;
39750;SDS011;37579;51.074;17.004;2023-01-08T11:06:25;5.95;;;4.43;;
39750;SDS011;37579;51.074;17.004;2023-01-08T11:08:56;7.57;;;4.53;;
39750;SDS011;37579;51.074;17.004;2023-01-08T11:11:36;8.55;;;4.35;;
39750;SDS011;37579;51.074;17.004;2023-01-08T11:14:04;8.93;;;4.53;;
39750;SDS011;37579;51.074;17.004;2023-01-08T11:16:44;7.72;;;4.35;;
39750;SDS011;37579;51.074;17.004;2023-01-08T11:19:14;7.85;;;3.85;;
39750;SDS011;37579;51.074;17.004;2023-01-08T11:22:04;6.88;;;4.22;;
39750;SDS011;37579;51.074;17.004;2023-01-08T11:24:37;9.20;;;4.20;;
39750;SDS011;37579;51.074;17.004;2023-01-08T11:29:35;6.32;;;3.63;;
39750;SDS011;37579;51.074;17.004;2023-01-08T11:35:28;7.90;;;4.18;;
39750;SDS011;37579;51.074;17.004;2023-01-08T11:37:59;8.18;;;3.53;;
39750;SDS011;37579;51.074;17.004;2023-01-08T11:45:39;5.93;;;3.55;;
39750;SDS011;37579;51.074;17.004;2023-01-08T11:48:29;8.55;;;4.03;;
39750;SDS011;37579;51.074;17.004;2023-01-08T11:54:02;8.38;;;3.90;;
39750;SDS011;37579;51.074;17.004;2023-01-08T12:13:33;8.18;;;3.25;;
39750;SDS011;37579;51.074;17.004;2023-01-08T12:16:05;5.53;;;3.50;;
39750;SDS011;37579;51.074;17.004;2023-01-08T12:19:06;7.63;;;3.58;;
39750;SDS011;37579;51.074;17.004;2023-01-08T12:33:08;5.00;;;3.25;;
39750;SDS011;37579;51.074;17.004;2023-01-08T12:35:46;8.88;;;3.92;;
39750;SDS011;37579;51.074;17.004;2023-01-08T12:38:25;6.43;;;3.03;;
39750;SDS011;37579;51.074;17.004;2023-01-08T12:41:00;5.40;;;2.80;;
39750;SDS011;37579;51.074;17.004;2023-01-08T12:44:11;6.45;;;3.75;;
39750;SDS011;37579;51.074;17.004;2023-01-08T12:46:26;7.85;;;3.38;;
39750;SDS011;37579;51.074;17.004;2023-01-08T12:48:55;6.50;;;3.08;;
39750;SDS011;37579;51.074;17.004;2023-01-08T12:51:33;5.32;;;2.85;;
39750;SDS011;37579;51.074;17.004;2023-01-08T13:02:35;7.30;;;3.10;;
39750;SDS011;37579;51.074;17.004;2023-01-08T13:07:44;5.20;;;3.05;;
39750;SDS011;37579;51.074;17.004;2023-01-08T13:12:56;6.60;;;3.00;;
39750;SDS011;37579;51.074;17.004;2023-01-08T13:15:26;6.22;;;3.47;;
39750;SDS011;37579;51.074;17.004;2023-01-08T13:18:04;6.82;;;3.17;;
39750;SDS011;37579;51.074;17.004;2023-01-08T13:20:42;8.75;;;3.28;;
39750;SDS011;37579;51.074;17.004;2023-01-08T13:23:23;7.30;;;3.17;;
39750;SDS011;37579;51.074;17.004;2023-01-08T13:25:52;5.88;;;3.15;;
39750;SDS011;37579;51.074;17.004;2023-01-08T13:30:53;8.00;;;3.22;;
39750;SDS011;37579;51.074;17.004;2023-01-08T13:33:24;8.35;;;3.50;;
39750;SDS011;37579;51.074;17.004;2023-01-08T13:36:05;8.07;;;3.30;;
39750;SDS011;37579;51.074;17.004;2023-01-08T13:38:38;9.07;;;3.78;;
39750;SDS011;37579;51.074;17.004;2023-01-08T13:41:10;6.93;;;3.30;;
39750;SDS011;37579;51.074;17.004;2023-01-08T13:43:59;5.95;;;3.30;;
39750;SDS011;37579;51.074;17.004;2023-01-08T13:46:39;6.65;;;3.55;;
39750;SDS011;37579;51.074;17.004;2023-01-08T13:51:42;5.07;;;3.00;;
39750;SDS011;37579;51.074;17.004;2023-01-08T13:56:39;6.80;;;3.25;;
39750;SDS011;37579;51.074;17.004;2023-01-08T13:59:10;7.07;;;3.13;;
39750;SDS011;37579;51.074;17.004;2023-01-08T14:01:58;7.10;;;3.50;;
39750;SDS011;37579;51.074;17.004;2023-01-08T14:04:25;6.35;;;2.97;;
39750;SDS011;37579;51.074;17.004;2023-01-08T14:06:51;5.18;;;3.40;;
39750;SDS011;37579;51.074;17.004;2023-01-08T14:09:23;6.65;;;3.53;;
39750;SDS011;37579;51.074;17.004;2023-01-08T14:11:51;8.55;;;3.40;;
39750;SDS011;37579;51.074;17.004;2023-01-08T14:14:20;9.90;;;3.25;;
39750;SDS011;37579;51.074;17.004;2023-01-08T14:16:47;10.43;;;3.83;;
39750;SDS011;37579;51.074;17.004;2023-01-08T14:19:19;5.18;;;2.78;;
39750;SDS011;37579;51.074;17.004;2023-01-08T14:21:50;6.88;;;3.08;;
39750;SDS011;37579;51.074;17.004;2023-01-08T14:24:22;6.50;;;3.00;;
39750;SDS011;37579;51.074;17.004;2023-01-08T14:26:53;6.00;;;3.08;;
39750;SDS011;37579;51.074;17.004;2023-01-08T14:29:24;5.20;;;2.70;;
39750;SDS011;37579;51.074;17.004;2023-01-08T14:31:53;4.95;;;3.10;;
39750;SDS011;37579;51.074;17.004;2023-01-08T14:34:24;4.55;;;2.72;;
39750;SDS011;37579;51.074;17.004;2023-01-08T14:36:52;7.15;;;3.25;;
39750;SDS011;37579;51.074;17.004;2023-01-08T14:39:32;4.97;;;3.00;;
39750;SDS011;37579;51.074;17.004;2023-01-08T14:42:03;5.20;;;2.92;;
39750;SDS011;37579;51.074;17.004;2023-01-08T14:44:57;11.57;;;3.22;;
39750;SDS011;37579;51.074;17.004;2023-01-08T14:47:41;5.43;;;2.72;;
39750;SDS011;37579;51.074;17.004;2023-01-08T14:52:59;5.50;;;2.83;;
39750;SDS011;37579;51.074;17.004;2023-01-08T14:55:41;5.05;;;2.65;;
39750;SDS011;37579;51.074;17.004;2023-01-08T14:58:13;4.70;;;3.05;;
39750;SDS011;37579;51.074;17.004;2023-01-08T15:00:41;4.93;;;2.50;;
39750;SDS011;37579;51.074;17.004;2023-01-08T15:03:22;3.85;;;2.55;;
39750;SDS011;37579;51.074;17.004;2023-01-08T15:05:55;3.58;;;2.88;;
39750;SDS011;37579;51.074;17.004;2023-01-08T15:08:25;4.88;;;2.95;;
39750;SDS011;37579;51.074;17.004;2023-01-08T15:10:56;4.68;;;3.08;;
39750;SDS011;37579;51.074;17.004;2023-01-08T15:13:24;6.85;;;2.83;;
39750;SDS011;37579;51.074;17.004;2023-01-08T15:15:56;4.95;;;2.83;;
39750;SDS011;37579;51.074;17.004;2023-01-08T15:18:32;7.35;;;3.67;;
39750;SDS011;37579;51.074;17.004;2023-01-08T15:21:06;5.20;;;3.08;;
39750;SDS011;37579;51.074;17.004;2023-01-08T15:23:36;5.25;;;3.30;;
39750;SDS011;37579;51.074;17.004;2023-01-08T15:26:08;4.13;;;2.92;;
39750;SDS011;37579;51.074;17.004;2023-01-08T15:28:42;5.78;;;2.63;;
39750;SDS011;37579;51.074;17.004;2023-01-08T15:31:31;4.85;;;2.95;;
39750;SDS011;37579;51.074;17.004;2023-01-08T15:34:09;4.63;;;2.78;;
39750;SDS011;37579;51.074;17.004;2023-01-08T15:36:35;3.90;;;2.92;;
39750;SDS011;37579;51.074;17.004;2023-01-08T15:39:02;6.35;;;2.80;;
39750;SDS011;37579;51.074;17.004;2023-01-08T15:41:31;4.40;;;2.78;;
39750;SDS011;37579;51.074;17.004;2023-01-08T15:44:17;5.15;;;2.63;;
39750;SDS011;37579;51.074;17.004;2023-01-08T15:46:43;3.95;;;2.90;;
39750;SDS011;37579;51.074;17.004;2023-01-08T15:49:09;4.72;;;2.83;;
39750;SDS011;37579;51.074;17.004;2023-01-08T15:51:42;4.68;;;2.92;;
39750;SDS011;37579;51.074;17.004;2023-01-08T15:54:10;3.92;;;3.00;;
39750;SDS011;37579;51.074;17.004;2023-01-08T15:56:37;3.88;;;2.75;;
39750;SDS011;37579;51.074;17.004;2023-01-08T15:59:03;5.90;;;3.20;;
39750;SDS011;37579;51.074;17.004;2023-01-08T16:01:28;3.65;;;2.72;;
39750;SDS011;37579;51.074;17.004;2023-01-08T16:03:56;3.83;;;2.75;;
39750;SDS011;37579;51.074;17.004;2023-01-08T16:06:21;4.40;;;3.08;;
39750;SDS011;37579;51.074;17.004;2023-01-08T16:08:47;4.75;;;3.10;;
39750;SDS011;37579;51.074;17.004;2023-01-08T16:11:14;6.30;;;3.03;;
39750;SDS011;37579;51.074;17.004;2023-01-08T16:13:41;3.95;;;3.00;;
39750;SDS011;37579;51.074;17.004;2023-01-08T16:16:08;4.65;;;3.25;;
39750;SDS011;37579;51.074;17.004;2023-01-08T16:18:38;6.05;;;2.90;;
39750;SDS011;37579;51.074;17.004;2023-01-08T16:21:05;4.63;;;2.90;;
39750;SDS011;37579;51.074;17.004;2023-01-08T16:23:32;4.07;;;2.75;;
39750;SDS011;37579;51.074;17.004;2023-01-08T16:26:03;3.65;;;2.70;;
39750;SDS011;37579;51.074;17.004;2023-01-08T16:28:33;3.15;;;2.75;;
39750;SDS011;37579;51.074;17.004;2023-01-08T16:30:59;4.45;;;2.63;;
39750;SDS011;37579;51.074;17.004;2023-01-08T16:33:25;3.15;;;2.75;;
39750;SDS011;37579;51.074;17.004;2023-01-08T16:35:54;5.20;;;3.10;;
39750;SDS011;37579;51.074;17.004;2023-01-08T16:38:22;3.60;;;2.78;;